Time;durP1;ratioP1;P1;durP2;ratioP2;P2;SDS_P1;SDS_P2;PMS_P1;PMS_P2;Temp;Humidity;BMP_temperature;BMP_pressure;BME280_temperature;BME280_humidity;BME280_pressure;Samples;Min_cycle;Max_cycle;Signal;HPM_P1;HPM_P2
2022/09/15 00:02:02;;;;;;;6.28;4.60;;;;;;;18.90;100.00;99825.94;5071311;28;20077;-70
2022/09/15 00:04:27;;;;;;;6.30;4.75;;;;;;;19.15;100.00;99818.28;5070832;28;20073;-70
2022/09/15 00:06:53;;;;;;;7.03;4.90;;;;;;;19.34;100.00;99785.22;5069271;28;20044;-70
2022/09/15 00:09:18;;;;;;;6.03;4.82;;;;;;;19.08;100.00;99762.06;5070919;28;20409;-70
2022/09/15 00:11:44;;;;;;;7.00;5.22;;;;;;;19.16;100.00;99795.91;5070915;28;20039;-70
2022/09/15 00:14:09;;;;;;;7.28;4.90;;;;;;;18.96;100.00;99818.66;5070867;28;20113;-70
2022/09/15 00:16:35;;;;;;;7.60;5.07;;;;;;;19.45;100.00;99828.38;5071053;28;20029;-70
2022/09/15 00:19:01;;;;;;;6.07;5.10;;;;;;;18.95;100.00;99803.31;5069144;28;20084;-69
2022/09/15 00:21:30;;;;;;;8.70;5.07;;;;;;;18.72;100.00;99791.91;5070635;28;20042;-70
2022/09/15 00:23:58;;;;;;;5.78;5.10;;;;;;;18.82;100.00;99799.84;5069253;28;20059;-70
2022/09/15 00:26:25;;;;;;;6.22;4.93;;;;;;;18.52;100.00;99809.56;5070704;28;20027;-70
2022/09/15 00:28:50;;;;;;;5.38;4.63;;;;;;;18.41;100.00;99814.50;5073184;28;20025;-70
2022/09/15 00:31:19;;;;;;;10.27;5.10;;;;;;;18.62;100.00;99816.59;5070970;28;20182;-70
2022/09/15 00:33:50;;;;;;;6.72;5.70;;;;;;;18.27;100.00;99783.66;5069362;28;20094;-70
2022/09/15 00:36:16;;;;;;;11.52;5.90;;;;;;;18.12;100.00;99800.88;5069547;28;20029;-69
2022/09/15 00:38:42;;;;;;;15.65;6.70;;;;;;;18.09;100.00;99795.91;5070369;28;20490;-72
2022/09/15 00:41:10;;;;;;;19.80;7.28;;;;;;;17.72;100.00;99756.19;5073579;28;20039;-70
2022/09/15 00:43:50;;;;;;;14.93;7.35;;;;;;;17.99;100.00;99797.41;5074800;28;20028;-72
2022/09/15 00:46:22;;;;;;;13.63;7.63;;;;;;;17.97;100.00;99758.91;5074846;28;20123;-70
2022/09/15 00:48:54;;;;;;;16.45;7.57;;;;;;;18.28;100.00;99791.28;5074862;28;20036;-70
2022/09/15 00:51:27;;;;;;;17.42;7.88;;;;;;;17.82;100.00;99800.19;5074438;28;20032;-71
2022/09/15 00:53:53;;;;;;;19.58;8.73;;;;;;;18.12;100.00;99793.16;5074654;28;20036;-74
2022/09/15 00:56:20;;;;;;;17.98;8.90;;;;;;;18.30;100.00;99798.91;5074532;28;20025;-70
2022/09/15 00:58:52;;;;;;;18.83;8.77;;;;;;;17.98;100.00;99759.75;5074528;28;20028;-71
2022/09/15 01:01:17;;;;;;;15.57;8.63;;;;;;;17.87;100.00;99746.69;5074253;28;20040;-70
2022/09/15 01:03:43;;;;;;;18.13;8.50;;;;;;;18.12;100.00;99741.69;5074325;28;20041;-71
2022/09/15 01:06:16;;;;;;;14.93;8.48;;;;;;;18.01;100.00;99772.41;5073255;28;20025;-71
2022/09/15 01:08:53;;;;;;;16.20;7.75;;;;;;;18.29;100.00;99741.47;5074323;28;20040;-70
2022/09/15 01:11:19;;;;;;;13.57;8.13;;;;;;;18.32;100.00;99767.03;5074478;28;20021;-70
2022/09/15 01:13:44;;;;;;;15.30;8.10;;;;;;;18.45;100.00;99761.94;5072832;28;20081;-70
2022/09/15 01:16:31;;;;;;;15.10;7.72;;;;;;;18.71;100.00;99771.41;5072745;28;20063;-70
2022/09/15 01:19:16;;;;;;;14.73;7.78;;;;;;;18.31;100.00;99775.66;5074175;28;20106;-71
2022/09/15 01:21:50;;;;;;;16.17;8.23;;;;;;;18.28;100.00;99770.72;5063399;28;20036;-71
2022/09/15 01:24:36;;;;;;;12.63;7.75;;;;;;;18.41;100.00;99753.56;5072835;28;20040;-70
2022/09/15 01:27:20;;;;;;;10.30;7.03;;;;;;;18.04;100.00;99783.31;5073430;28;20040;-72
2022/09/15 01:30:23;;;;;;;8.38;5.35;;;;;;;17.83;100.00;99786.38;5074161;28;20039;-71
2022/09/15 01:33:13;;;;;;;11.63;5.32;;;;;;;18.72;100.00;99786.75;5073984;28;20033;-70
2022/09/15 01:35:54;;;;;;;7.55;4.78;;;;;;;18.14;100.00;99791.31;5072846;28;20032;-71
2022/09/15 01:38:33;;;;;;;6.78;5.03;;;;;;;18.21;100.00;99784.88;5073628;28;20487;-70
2022/09/15 01:41:37;;;;;;;7.50;4.70;;;;;;;18.15;100.00;99790.38;5073733;28;20043;-71
2022/09/15 01:44:08;;;;;;;5.63;4.45;;;;;;;18.00;100.00;99781.88;5049585;28;20076;-71
2022/09/15 01:46:43;;;;;;;6.20;4.40;;;;;;;18.10;100.00;99787.28;5073388;28;20029;-71
2022/09/15 01:49:14;;;;;;;5.88;4.55;;;;;;;18.10;100.00;99738.41;5072249;28;20271;-71
2022/09/15 01:51:40;;;;;;;7.25;4.75;;;;;;;17.67;100.00;99752.25;5073081;28;20444;-72
2022/09/15 01:54:06;;;;;;;7.38;4.95;;;;;;;17.83;100.00;99740.91;5072163;28;20123;-71
2022/09/15 01:56:32;;;;;;;6.68;4.32;;;;;;;18.18;100.00;99772.19;5073710;28;20024;-71
2022/09/15 01:58:57;;;;;;;7.45;4.70;;;;;;;18.53;100.00;99775.97;5072237;28;20031;-74
2022/09/15 02:01:26;;;;;;;6.13;4.90;;;;;;;18.24;100.00;99763.25;5073637;28;20047;-72
2022/09/15 02:03:57;;;;;;;6.93;4.90;;;;;;;18.48;100.00;99783.16;5073377;28;20051;-71
2022/09/15 02:06:36;;;;;;;4.97;4.47;;;;;;;18.33;100.00;99752.38;5073014;28;20089;-72
2022/09/15 02:09:27;;;;;;;6.40;5.25;;;;;;;18.02;100.00;99789.50;5072084;28;20029;-71
2022/09/15 02:12:37;;;;;;;5.07;4.57;;;;;;;18.04;100.00;99797.97;5073424;28;20418;-71
2022/09/15 02:15:09;;;;;;;8.02;4.85;;;;;;;18.15;100.00;99746.63;5011261;28;20042;-71
2022/09/15 02:17:41;;;;;;;6.53;4.70;;;;;;;18.15;100.00;99764.66;5066627;28;20059;-71
2022/09/15 02:20:30;;;;;;;5.10;4.60;;;;;;;18.50;100.00;99789.03;5071824;28;20047;-70
2022/09/15 02:23:04;;;;;;;6.15;5.30;;;;;;;17.68;100.00;99756.47;5065152;28;20134;-71
2022/09/15 02:25:33;;;;;;;8.13;4.93;;;;;;;17.84;100.00;99795.78;5073465;28;20129;-74
2022/09/15 02:28:04;;;;;;;6.90;4.90;;;;;;;17.81;100.00;99786.47;5073099;28;20051;-72
2022/09/15 02:30:31;;;;;;;12.23;5.47;;;;;;;17.47;100.00;99768.00;5073294;28;20102;-75
2022/09/15 02:33:01;;;;;;;6.57;5.13;;;;;;;17.63;100.00;99776.50;5071773;28;20036;-70
2022/09/15 02:35:30;;;;;;;10.00;5.30;;;;;;;17.67;100.00;99781.34;5073151;28;20032;-71
2022/09/15 02:37:57;;;;;;;10.32;5.68;;;;;;;17.87;100.00;99780.13;5071661;28;20423;-70
2022/09/15 02:40:22;;;;;;;16.33;6.13;;;;;;;17.57;100.00;99753.72;5072932;28;20111;-71
2022/09/15 02:42:59;;;;;;;9.77;5.57;;;;;;;17.43;100.00;99779.38;5072901;28;20056;-70
2022/09/15 02:45:25;;;;;;;11.10;6.32;;;;;;;17.72;100.00;99752.78;5071378;28;20490;-70
2022/09/15 02:47:51;;;;;;;9.50;5.75;;;;;;;17.54;100.00;99757.31;5072295;28;20115;-71
2022/09/15 02:50:17;;;;;;;11.18;5.63;;;;;;;17.79;100.00;99785.75;5072272;28;20033;-70
2022/09/15 02:52:43;;;;;;;7.82;5.07;;;;;;;18.03;100.00;99788.56;5071023;28;20417;-70
2022/09/15 02:55:09;;;;;;;7.88;5.40;;;;;;;17.57;100.00;99761.44;5072771;28;20020;-71
2022/09/15 02:57:35;;;;;;;8.15;5.07;;;;;;;17.40;100.00;99728.16;5070934;28;20433;-71
2022/09/15 03:00:12;;;;;;;8.43;5.43;;;;;;;17.39;100.00;99762.50;5072321;28;20029;-71
2022/09/15 03:02:48;;;;;;;7.68;5.55;;;;;;;17.41;100.00;99755.53;5089246;28;20028;-72
2022/09/15 03:05:15;;;;;;;11.07;5.80;;;;;;;17.44;100.00;99784.44;5092881;28;20031;-71
2022/09/15 03:07:41;;;;;;;8.43;5.60;;;;;;;17.32;100.00;99744.03;5092214;28;20020;-69
2022/09/15 03:10:10;;;;;;;11.95;5.53;;;;;;;17.50;100.00;99748.13;5091069;28;20043;-68
2022/09/15 03:12:41;;;;;;;10.73;5.35;;;;;;;19.77;100.00;99753.00;5091874;28;20032;-73
2022/09/15 03:15:08;;;;;;;11.43;5.65;;;;;;;18.10;100.00;99762.34;5093434;28;20115;-75
2022/09/15 03:17:40;;;;;;;12.23;5.93;;;;;;;17.64;100.00;99775.56;5091456;28;20031;-74
2022/09/15 03:20:08;;;;;;;9.40;5.70;;;;;;;17.11;100.00;99722.19;5092723;28;20040;-73
2022/09/15 03:22:34;;;;;;;10.55;5.20;;;;;;;17.95;100.00;99768.47;5091989;28;20117;-75
2022/09/15 03:25:00;;;;;;;11.15;5.65;;;;;;;17.80;100.00;99777.13;5092472;28;20475;-74
2022/09/15 03:27:26;;;;;;;14.57;6.40;;;;;;;17.50;100.00;99781.53;5092485;28;20050;-72
2022/09/15 03:29:52;;;;;;;12.18;6.32;;;;;;;17.75;100.00;99761.13;5092399;28;20032;-73
2022/09/15 03:32:18;;;;;;;15.13;7.55;;;;;;;17.24;100.00;99777.91;5091866;28;20032;-73
2022/09/15 03:34:44;;;;;;;16.00;7.45;;;;;;;17.36;100.00;99742.94;5092436;28;20032;-73
2022/09/15 03:37:10;;;;;;;17.67;7.65;;;;;;;17.24;100.00;99765.06;5091276;28;20093;-73
2022/09/15 03:39:36;;;;;;;18.05;7.32;;;;;;;17.27;100.00;99782.03;5091943;28;20146;-77
2022/09/15 03:42:01;;;;;;;18.65;6.85;;;;;;;17.22;100.00;99774.59;5092494;28;21037;-75
2022/09/15 03:44:27;;;;;;;8.20;5.82;;;;;;;16.98;100.00;99742.63;5092238;28;20032;-73
2022/09/15 03:46:53;;;;;;;13.65;6.07;;;;;;;17.31;100.00;99761.19;5091897;28;20405;-73
2022/09/15 03:49:18;;;;;;;14.05;6.78;;;;;;;16.92;100.00;99747.28;5091862;28;20024;-70
2022/09/15 03:51:44;;;;;;;20.02;7.00;;;;;;;16.92;100.00;99748.09;5089974;28;20489;-69
2022/09/15 03:54:09;;;;;;;15.60;6.13;;;;;;;17.00;100.00;99756.19;5091419;28;20055;-69
2022/09/15 03:56:38;;;;;;;15.25;6.57;;;;;;;17.35;100.00;99772.94;5089919;28;20077;-72
2022/09/15 03:59:04;;;;;;;18.63;6.93;;;;;;;16.82;100.00;99728.16;5090776;28;20028;-71
2022/09/15 04:01:31;;;;;;;11.95;6.32;;;;;;;17.05;100.00;99768.78;5090896;28;20028;-72
2022/09/15 04:03:57;;;;;;;14.98;6.97;;;;;;;17.13;100.00;99776.88;5069949;28;20040;-71
2022/09/15 04:06:24;;;;;;;10.73;7.15;;;;;;;17.29;100.00;99739.91;5070233;28;20035;-72
2022/09/15 04:08:50;;;;;;;13.40;8.13;;;;;;;17.18;100.00;99742.28;5068832;28;20464;-72
2022/09/15 04:11:18;;;;;;;13.90;8.73;;;;;;;16.91;100.00;99731.06;5085855;28;20034;-72
2022/09/15 04:13:44;;;;;;;9.68;8.38;;;;;;;17.21;100.00;99754.13;5070786;28;20028;-73
2022/09/15 04:16:12;;;;;;;10.50;8.68;;;;;;;17.37;100.00;99777.19;5070058;28;20044;-73
2022/09/15 04:18:38;;;;;;;13.30;8.57;;;;;;;17.18;100.00;99742.28;5079656;28;20575;-72
2022/09/15 04:21:07;;;;;;;11.18;8.52;;;;;;;17.37;100.00;99742.03;5080054;28;20032;-72
2022/09/15 04:23:33;;;;;;;13.25;8.75;;;;;;;17.20;100.00;99773.03;5090207;28;20028;-74
2022/09/15 04:26:01;;;;;;;10.98;8.77;;;;;;;17.08;100.00;99773.72;5090181;28;20039;-72
2022/09/15 04:28:28;;;;;;;11.48;9.05;;;;;;;17.11;100.00;99771.81;5091516;28;20036;-72
2022/09/15 04:31:06;;;;;;;12.15;9.52;;;;;;;17.40;100.00;99776.97;5090320;28;20083;-72
2022/09/15 04:33:31;;;;;;;11.30;8.95;;;;;;;17.02;100.00;99756.09;5091459;28;20028;-71
2022/09/15 04:36:05;;;;;;;13.15;9.68;;;;;;;17.46;100.00;99772.31;5080409;28;20040;-72
2022/09/15 04:38:31;;;;;;;17.10;10.23;;;;;;;17.13;100.00;99731.44;5090069;28;20067;-75
2022/09/15 04:40:57;;;;;;;14.00;10.38;;;;;;;17.64;100.00;99749.84;5073795;28;20064;-72
2022/09/15 04:43:24;;;;;;;11.27;10.07;;;;;;;17.70;100.00;99772.63;5069199;28;20025;-73
2022/09/15 04:45:49;;;;;;;12.88;10.00;;;;;;;18.02;100.00;99780.06;5070208;28;20025;-72
2022/09/15 04:48:15;;;;;;;13.07;10.25;;;;;;;17.41;100.00;99773.50;5070162;28;20033;-73
2022/09/15 04:50:41;;;;;;;11.80;10.50;;;;;;;17.79;100.00;99798.59;5070223;28;20103;-73
2022/09/15 04:53:07;;;;;;;17.48;11.07;;;;;;;17.38;100.00;99763.41;5069625;28;20249;-71
2022/09/15 04:55:33;;;;;;;20.52;11.73;;;;;;;17.77;100.00;99787.59;5069441;28;20766;-71
2022/09/15 04:57:59;;;;;;;15.10;12.07;;;;;;;17.84;100.00;99763.16;5070579;28;20033;-72
2022/09/15 05:00:25;;;;;;;15.43;11.13;;;;;;;18.12;100.00;99788.03;5070898;28;20384;-71
2022/09/15 05:02:51;;;;;;;13.18;11.23;;;;;;;18.19;100.00;99794.44;5069295;28;20066;-71
2022/09/15 05:05:17;;;;;;;15.73;11.13;;;;;;;17.84;100.00;99754.63;5069562;28;20032;-71
2022/09/15 05:07:42;;;;;;;15.50;10.32;;;;;;;17.92;100.00;99763.53;5070539;28;20487;-71
2022/09/15 05:10:08;;;;;;;11.63;10.43;;;;;;;18.17;100.00;99780.81;5069431;28;20035;-72
2022/09/15 05:12:33;;;;;;;12.93;10.25;;;;;;;18.50;100.00;99816.56;5070945;28;20044;-72
2022/09/15 05:14:59;;;;;;;16.75;11.07;;;;;;;18.39;100.00;99803.47;5070529;28;20028;-72
2022/09/15 05:17:24;;;;;;;20.67;10.95;;;;;;;18.34;100.00;99780.63;5070820;28;20029;-73
2022/09/15 05:19:49;;;;;;;14.90;10.75;;;;;;;18.75;100.00;99814.91;5069153;28;20063;-72
2022/09/15 05:22:15;;;;;;;13.50;9.77;;;;;;;18.64;100.00;99770.94;5070614;28;20032;-72
2022/09/15 05:24:40;;;;;;;13.02;9.57;;;;;;;18.76;100.00;99824.25;5069065;28;20104;-71
2022/09/15 05:27:06;;;;;;;11.35;9.70;;;;;;;18.94;100.00;99794.72;5071700;28;20035;-72
2022/09/15 05:29:31;;;;;;;12.63;9.65;;;;;;;19.38;100.00;99766.06;5072983;28;20515;-72
2022/09/15 05:31:56;;;;;;;10.00;8.90;;;;;;;19.39;100.00;99796.06;5074453;28;20519;-72
2022/09/15 05:34:22;;;;;;;10.68;9.68;;;;;;;19.33;100.00;99783.56;5073809;28;20021;-72
2022/09/15 05:36:47;;;;;;;12.10;9.50;;;;;;;19.40;100.00;99797.72;5073038;28;20032;-72
2022/09/15 05:39:13;;;;;;;9.95;8.63;;;;;;;19.22;100.00;99829.00;5072617;28;20498;-73
2022/09/15 05:41:38;;;;;;;12.15;9.07;;;;;;;19.58;100.00;99824.03;5072720;28;20039;-72
2022/09/15 05:44:03;;;;;;;10.32;8.98;;;;;;;19.95;100.00;99822.34;5073981;28;20060;-71
2022/09/15 05:46:29;;;;;;;9.80;8.55;;;;;;;19.73;100.00;99800.59;5072548;28;20071;-72
2022/09/15 05:48:56;;;;;;;11.30;8.48;;;;;;;20.57;100.00;99816.19;5072460;28;20495;-72
2022/09/15 05:51:22;;;;;;;9.48;8.57;;;;;;;19.65;100.00;99789.97;5073354;28;20087;-72
2022/09/15 05:53:48;;;;;;;12.10;9.02;;;;;;;20.20;100.00;99796.50;5072585;28;20037;-72
2022/09/15 05:56:15;;;;;;;13.50;9.18;;;;;;;19.93;100.00;99785.50;5073625;28;20422;-71
2022/09/15 05:58:44;;;;;;;9.90;8.57;;;;;;;20.50;100.00;99782.22;5073365;28;20028;-71
2022/09/15 06:01:21;;;;;;;9.70;8.80;;;;;;;20.99;100.00;99805.34;5073638;28;20043;-71
2022/09/15 06:03:47;;;;;;;10.15;9.15;;;;;;;20.81;100.00;99800.69;5073292;28;20115;-72
2022/09/15 06:06:13;;;;;;;11.73;8.88;;;;;;;20.64;100.00;99763.97;5073656;28;20029;-72
2022/09/15 06:08:42;;;;;;;13.57;8.98;;;;;;;21.34;100.00;99801.00;5073452;28;20036;-72
2022/09/15 06:11:14;;;;;;;10.20;8.82;;;;;;;20.63;100.00;99764.91;5073300;28;20490;-72
2022/09/15 06:13:40;;;;;;;17.85;9.68;;;;;;;21.10;100.00;99774.38;5071742;28;20029;-72
2022/09/15 06:16:11;;;;;;;13.82;8.85;;;;;;;21.52;100.00;99817.72;5073101;28;20434;-71
2022/09/15 06:18:38;;;;;;;18.90;9.30;;;;;;;21.04;100.00;99818.78;5072985;28;20230;-72
2022/09/15 06:21:10;;;;;;;14.43;9.20;;;;;;;20.99;100.00;99799.34;5073263;28;20036;-72
2022/09/15 06:23:36;;;;;;;19.20;9.73;;;;;;;21.41;100.00;99788.44;5072746;28;20207;-72
2022/09/15 06:26:05;;;;;;;18.83;9.77;;;;;;;21.79;100.00;99785.50;5072983;28;20107;-71
2022/09/15 06:28:30;;;;;;;14.18;8.23;;;;;;;21.86;100.00;99779.75;5072761;28;20029;-73
2022/09/15 06:30:56;;;;;;;15.25;7.22;;;;;;;22.14;100.00;99812.94;5072422;28;20020;-72
2022/09/15 06:33:21;;;;;;;9.45;7.95;;;;;;;22.46;100.00;99814.75;5072871;28;20115;-72
2022/09/15 06:35:47;;;;;;;10.40;7.28;;;;;;;21.87;100.00;99783.97;5073035;28;20055;-76
2022/09/15 06:38:12;;;;;;;10.65;6.60;;;;;;;21.74;100.00;99800.56;5072632;28;20037;-72
2022/09/15 06:40:37;;;;;;;8.02;6.47;;;;;;;22.30;100.00;99807.38;5072647;28;20021;-72
2022/09/15 06:43:03;;;;;;;11.65;6.63;;;;;;;22.06;100.00;99786.81;5072800;28;20039;-71
2022/09/15 06:45:29;;;;;;;9.10;5.88;;;;;;;23.02;100.00;99811.00;5071065;28;20032;-71
2022/09/15 06:47:54;;;;;;;7.15;5.80;;;;;;;22.17;100.00;99812.69;5072782;28;20032;-71
2022/09/15 06:50:20;;;;;;;13.70;5.93;;;;;;;22.67;100.00;99774.16;5072105;28;20028;-72
2022/09/15 06:52:46;;;;;;;11.05;5.55;;;;;;;23.08;100.00;99749.06;5072202;28;20070;-71
2022/09/15 06:55:11;;;;;;;7.65;5.65;;;;;;;23.02;100.00;99759.13;5072309;28;20432;-72
2022/09/15 06:57:37;;;;;;;9.90;5.82;;;;;;;23.20;100.00;99739.44;5072132;28;20498;-71
2022/09/15 07:00:05;;;;;;;6.72;5.25;;;;;;;23.51;100.00;99781.84;5072367;28;20127;-71
2022/09/15 07:02:30;;;;;;;9.20;5.93;;;;;;;23.87;100.00;99787.31;5071845;28;20020;-71
2022/09/15 07:04:56;;;;;;;9.02;5.30;;;;;;;22.25;100.00;99780.97;5071036;28;20029;-71
2022/09/15 07:07:21;;;;;;;6.18;5.05;;;;;;;23.31;100.00;99760.19;5071705;28;20032;-72
2022/09/15 07:09:46;;;;;;;9.48;5.25;;;;;;;23.22;100.00;99738.38;5071597;28;20082;-71
2022/09/15 07:12:12;;;;;;;10.50;5.60;;;;;;;22.81;100.00;99747.94;5070339;28;20103;-70
2022/09/15 07:14:37;;;;;;;7.40;5.20;;;;;;;23.45;100.00;99767.63;5071927;28;20059;-71
2022/09/15 07:17:03;;;;;;;11.50;5.20;;;;;;;23.99;100.00;99759.47;5071604;28;20029;-73
2022/09/15 07:19:28;;;;;;;9.20;4.97;;;;;;;24.30;100.00;99747.25;5070061;28;20077;-72
2022/09/15 07:21:54;;;;;;;12.85;5.28;;;;;;;24.55;100.00;99763.13;5070727;28;20064;-72
2022/09/15 07:24:19;;;;;;;13.02;5.95;;;;;;;24.62;100.00;99761.63;5071689;28;20090;-71
2022/09/15 07:26:44;;;;;;;15.05;7.82;;;;;;;;;;5070567;28;20036;-72
2022/09/15 07:29:10;;;;;;;8.95;6.28;;;;;;;24.77;100.00;99790.69;5071643;28;20063;-72
2022/09/15 07:31:37;;;;;;;9.82;6.40;;;;;;;24.20;100.00;99799.22;5071576;28;20034;-71
2022/09/15 07:34:03;;;;;;;8.15;6.20;;;;;;;24.76;100.00;99799.47;5071055;28;20024;-71
2022/09/15 07:36:29;;;;;;;7.28;6.38;;;;;;;24.17;100.00;99790.84;5071110;28;20036;-72
2022/09/15 07:38:55;;;;;;;9.02;6.50;;;;;;;24.97;100.00;99752.47;5071600;28;20505;-73
2022/09/15 07:41:26;;;;;;;7.88;6.03;;;;;;;24.85;100.00;99759.59;5071715;28;20032;-73
2022/09/15 07:43:53;;;;;;;;;;;;;;;25.25;100.00;99782.81;5070691;28;20052;-74
2022/09/15 07:46:20;;;;;;;8.43;6.70;;;;;;;25.46;100.00;99788.66;5071508;28;19920;-72
2022/09/15 07:48:48;;;;;;;10.75;5.65;;;;;;;25.26;100.00;99785.28;5070382;28;20076;-72
2022/09/15 07:51:14;;;;;;;10.23;6.20;;;;;;;25.64;100.00;99789.56;5071584;28;20070;-74
2022/09/15 07:53:40;;;;;;;9.45;5.88;;;;;;;25.84;96.24;99749.44;5071987;28;20040;-73
2022/09/15 07:56:06;;;;;;;13.27;5.47;;;;;;;25.66;100.00;99788.47;5071060;28;20020;-72
2022/09/15 07:58:32;;;;;;;8.90;5.95;;;;;;;25.67;99.99;99794.50;5069481;28;20039;-73
2022/09/15 08:01:03;;;;;;;7.43;5.22;;;;;;;25.83;99.19;99805.09;5071164;28;20063;-73
2022/09/15 08:03:29;;;;;;;7.32;5.72;;;;;;;25.71;100.00;99793.25;5070053;28;20020;-74
2022/09/15 08:06:01;;;;;;;8.85;5.75;;;;;;;26.41;94.53;99785.59;5070012;28;20029;-75
2022/09/15 08:08:27;;;;;;;10.32;6.60;;;;;;;26.69;90.99;99783.75;5071566;28;20020;-74
2022/09/15 08:10:53;;;;;;;13.23;10.23;;;;;;;26.44;89.79;99768.84;5070185;28;20020;-77
2022/09/15 08:13:19;;;;;;;10.80;7.25;;;;;;;26.98;90.19;99797.38;5071169;28;20036;-74
2022/09/15 08:15:45;;;;;;;6.68;5.10;;;;;;;26.35;93.02;99791.41;5071117;28;20024;-74
2022/09/15 08:18:11;;;;;;;8.90;4.90;;;;;;;26.71;91.57;99792.28;5071021;28;20048;-75
2022/09/15 08:20:42;;;;;;;8.23;4.60;;;;;;;26.59;90.44;99789.03;5071213;28;20508;-72
2022/09/15 08:23:09;;;;;;;9.10;6.10;;;;;;;26.56;89.76;99771.06;5071239;28;20082;-72
2022/09/15 08:25:36;;;;;;;8.77;5.78;;;;;;;27.64;80.65;99787.22;5069942;28;20025;-72
2022/09/15 08:28:02;;;;;;;4.53;4.13;;;;;;;27.37;77.89;99758.69;5070747;28;20115;-72
2022/09/15 08:30:28;;;;;;;7.22;4.68;;;;;;;26.59;80.95;99783.00;5069764;28;20074;-72
2022/09/15 08:32:53;;;;;;;9.10;4.22;;;;;;;26.65;80.08;99771.97;5071323;28;20036;-72
2022/09/15 08:35:19;;;;;;;10.75;4.70;;;;;;;26.67;89.48;99767.41;5069826;28;20031;-72
2022/09/15 08:37:45;;;;;;;6.47;4.40;;;;;;;28.02;73.19;99744.09;5070787;28;20032;-72
2022/09/15 08:40:21;;;;;;;13.18;4.70;;;;;;;27.02;78.58;99724.84;5070615;28;20035;-73
2022/09/15 08:42:49;;;;;;;5.18;4.35;;;;;;;27.20;77.42;99760.34;5069759;28;20410;-72
2022/09/15 08:45:23;;;;;;;5.03;4.05;;;;;;;28.47;72.82;99775.91;5070626;28;20029;-73
2022/09/15 08:47:54;;;;;;;7.00;4.18;;;;;;;27.95;71.59;99748.34;5070455;28;20036;-72
2022/09/15 08:50:31;;;;;;;9.15;4.10;;;;;;;27.79;67.38;99748.25;5070473;28;20029;-74
2022/09/15 08:53:02;;;;;;;4.60;4.07;;;;;;;28.05;67.43;99762.91;5070036;28;20028;-75
2022/09/15 08:55:42;;;;;;;6.53;3.95;;;;;;;28.21;61.42;99770.78;5069144;28;20037;-74
2022/09/15 08:58:17;;;;;;;6.43;4.07;;;;;;;27.60;64.11;99757.16;5069019;28;20032;-72
2022/09/15 09:00:45;;;;;;;5.40;4.00;;;;;;;28.90;62.68;99746.00;5070931;28;20043;-72
2022/09/15 09:03:34;;;;;;;9.57;4.55;;;;;;;28.90;61.14;99757.28;5074267;28;20039;-73
2022/09/15 09:06:41;;;;;;;11.15;4.22;;;;;;;29.12;58.93;99704.22;5074173;28;20039;-72
2022/09/15 09:09:24;;;;;;;7.90;4.30;;;;;;;29.14;58.16;99747.81;5074339;28;20089;-71
2022/09/15 09:12:04;;;;;;;9.30;4.10;;;;;;;29.21;57.66;99754.81;5074204;28;20024;-72
2022/09/15 09:14:51;;;;;;;6.68;3.92;;;;;;;29.44;55.29;99744.44;5074497;28;20028;-72
2022/09/15 09:17:39;;;;;;;8.50;4.20;;;;;;;29.34;57.38;99717.59;5074498;28;20039;-72
2022/09/15 09:20:32;;;;;;;14.80;4.10;;;;;;;29.89;55.48;99742.78;5072703;28;20055;-74
2022/09/15 09:23:00;;;;;;;9.13;3.88;;;;;;;29.21;55.06;99743.53;5074431;28;20120;-72
2022/09/15 09:25:26;;;;;;;7.25;3.70;;;;;;;28.58;54.69;99709.38;5074432;28;20020;-72
2022/09/15 09:28:00;;;;;;;6.90;3.58;;;;;;;29.01;56.34;99729.94;5073405;28;20405;-71
2022/09/15 09:30:31;;;;;;;6.45;3.40;;;;;;;30.38;53.60;99724.16;5073580;28;20494;-73
2022/09/15 09:33:27;;;;;;;7.55;3.72;;;;;;;29.71;54.01;99715.19;5074513;28;20563;-72
2022/09/15 09:35:52;;;;;;;6.25;3.60;;;;;;;29.77;53.02;99704.84;5072614;28;20047;-72
2022/09/15 09:38:27;;;;;;;10.30;3.38;;;;;;;29.73;53.58;99681.78;5073800;28;20467;-72
2022/09/15 09:40:53;;;;;;;7.57;3.83;;;;;;;29.18;53.84;99700.13;5072425;28;20071;-72
2022/09/15 09:43:19;;;;;;;9.10;3.50;;;;;;;29.01;55.46;99685.44;5073134;28;20060;-71
2022/09/15 09:45:44;;;;;;;10.05;3.20;;;;;;;29.42;54.08;99714.94;5072795;28;20032;-72
2022/09/15 09:48:16;;;;;;;7.03;3.17;;;;;;;29.04;54.98;99674.59;5071755;28;20025;-69
2022/09/15 09:50:42;;;;;;;6.15;3.35;;;;;;;30.50;55.52;99680.75;5073067;28;20140;-71
2022/09/15 09:53:31;;;;;;;5.57;3.05;;;;;;;30.60;51.89;99702.31;5073044;28;20467;-70
2022/09/15 09:56:15;;;;;;;11.27;3.78;;;;;;;30.12;53.27;99697.41;5073763;28;20036;-71
2022/09/15 09:58:42;;;;;;;10.60;3.50;;;;;;;30.77;51.69;99659.16;5072185;28;20097;-72
2022/09/15 10:01:19;;;;;;;6.47;3.13;;;;;;;30.65;50.47;99657.97;5072057;28;20043;-73
2022/09/15 10:03:45;;;;;;;8.18;3.28;;;;;;;30.75;50.75;99654.09;5073437;28;20040;-73
2022/09/15 10:06:10;;;;;;;9.77;3.30;;;;;;;31.62;47.78;99691.88;5071774;28;20142;-72
2022/09/15 10:08:37;;;;;;;12.45;3.13;;;;;;;30.94;49.32;99659.84;5073620;28;20115;-72
2022/09/15 10:11:09;;;;;;;11.60;3.17;;;;;;;31.44;47.99;99681.75;5073034;28;20470;-73
2022/09/15 10:13:47;;;;;;;9.43;2.60;;;;;;;30.50;49.33;99671.06;5071549;28;20107;-72
2022/09/15 10:16:17;;;;;;;11.20;2.90;;;;;;;31.46;47.79;99639.50;5071890;28;20028;-71
2022/09/15 10:18:43;;;;;;;11.85;3.20;;;;;;;31.23;46.79;99652.75;5072277;28;20044;-72
2022/09/15 10:21:10;;;;;;;6.53;2.80;;;;;;;31.94;47.54;99683.56;5073055;28;20124;-72
2022/09/15 10:23:36;;;;;;;6.38;2.80;;;;;;;31.67;46.32;99681.63;5071325;28;20020;-72
2022/09/15 10:26:16;;;;;;;8.00;3.10;;;;;;;31.96;46.46;99670.22;5073362;28;20038;-72
2022/09/15 10:28:43;;;;;;;6.18;2.55;;;;;;;32.02;46.57;99651.88;5072858;28;20024;-72
2022/09/15 10:31:12;;;;;;;10.95;3.10;;;;;;;31.92;45.62;99664.53;5071085;28;20037;-71
2022/09/15 10:33:43;;;;;;;11.45;3.00;;;;;;;31.43;46.16;99630.19;5072071;28;20111;-72
2022/09/15 10:36:28;;;;;;;8.13;3.08;;;;;;;32.37;44.75;99655.41;5072437;28;20037;-72
2022/09/15 10:38:57;;;;;;;4.30;2.25;;;;;;;32.43;42.89;99646.75;5070944;28;20455;-71
2022/09/15 10:41:26;;;;;;;6.75;2.60;;;;;;;32.48;43.81;99647.03;5071126;28;20040;-71
2022/09/15 10:44:29;;;;;;;4.22;2.45;;;;;;;32.48;44.02;99633.06;5071485;28;20146;-72
2022/09/15 10:46:55;;;;;;;6.45;2.58;;;;;;;32.12;44.31;99639.22;5072231;28;20529;-71
2022/09/15 10:49:23;;;;;;;8.77;2.42;;;;;;;32.54;42.90;99619.94;5070821;28;20033;-71
2022/09/15 10:52:15;;;;;;;5.68;2.55;;;;;;;31.94;43.23;99620.44;5072105;28;20029;-71
2022/09/15 10:54:52;;;;;;;4.18;2.38;;;;;;;32.74;42.40;99593.72;5043693;28;20494;-72
2022/09/15 10:57:34;;;;;;;5.95;2.25;;;;;;;32.41;43.64;99583.75;5072228;28;20113;-72
2022/09/15 11:00:16;;;;;;;5.97;2.30;;;;;;;32.69;42.47;99589.03;5072178;28;20036;-71
2022/09/15 11:02:51;;;;;;;4.25;2.40;;;;;;;33.10;41.62;99610.94;5072175;28;20028;-71
2022/09/15 11:05:28;;;;;;;9.13;2.00;;;;;;;33.20;40.20;99608.75;5070551;28;20546;-72
2022/09/15 11:08:15;;;;;;;9.88;2.17;;;;;;;33.04;40.78;99576.66;5070488;28;20123;-71
2022/09/15 11:10:44;;;;;;;7.45;2.67;;;;;;;33.92;40.23;99603.69;5070519;28;20035;-71
2022/09/15 11:13:47;;;;;;;7.95;2.38;;;;;;;33.12;40.65;99581.78;5071497;28;20032;-71
2022/09/15 11:16:30;;;;;;;6.97;2.58;;;;;;;33.71;40.08;99564.28;5042901;28;20490;-71
2022/09/15 11:19:10;;;;;;;8.00;2.75;;;;;;;33.61;40.33;99594.72;5069730;28;20072;-71
2022/09/15 11:21:41;;;;;;;9.57;2.90;;;;;;;33.61;39.59;99555.97;5070535;28;20055;-71
2022/09/15 11:24:33;;;;;;;6.80;2.30;;;;;;;33.71;38.88;99584.59;5070853;28;20033;-71
2022/09/15 11:27:10;;;;;;;6.60;2.42;;;;;;;33.06;38.84;99582.56;5071181;28;20060;-70
2022/09/15 11:30:08;;;;;;;6.72;2.30;;;;;;;33.18;39.52;99557.22;5071461;28;20024;-70
2022/09/15 11:32:43;;;;;;;6.18;1.95;;;;;;;33.88;38.94;99576.06;5036354;28;20051;-71
2022/09/15 11:35:28;;;;;;;6.00;2.25;;;;;;;34.21;38.50;99562.09;5071261;28;20032;-73
2022/09/15 11:37:59;;;;;;;5.00;2.17;;;;;;;33.59;38.59;99558.00;5071094;28;20089;-71
2022/09/15 11:40:32;;;;;;;7.65;2.08;;;;;;;33.15;38.58;99555.00;5070882;28;20047;-71